sensor_id;sensor_type;location;lat;lon;timestamp;temperature;humidity
16102;DHT22;56411;52.964;10.540;2022-11-09T00:01:26;13.00;99.90
16102;DHT22;56411;52.964;10.540;2022-11-09T00:03:54;12.90;99.90
16102;DHT22;56411;52.964;10.540;2022-11-09T00:06:22;12.90;99.90
16102;DHT22;56411;52.964;10.540;2022-11-09T00:08:49;12.80;99.90
16102;DHT22;56411;52.964;10.540;2022-11-09T00:11:16;12.80;99.90
16102;DHT22;56411;52.964;10.540;2022-11-09T00:13:45;12.80;99.90
16102;DHT22;56411;52.964;10.540;2022-11-09T00:16:20;12.80;99.90
16102;DHT22;56411;52.964;10.540;2022-11-09T00:18:47;12.80;99.90
16102;DHT22;56411;52.964;10.540;2022-11-09T00:21:16;12.90;99.90
16102;DHT22;56411;52.964;10.540;2022-11-09T00:23:44;12.90;99.90
16102;DHT22;56411;52.964;10.540;2022-11-09T00:26:12;12.90;99.90
16102;DHT22;56411;52.964;10.540;2022-11-09T00:28:40;12.90;99.90
16102;DHT22;56411;52.964;10.540;2022-11-09T00:31:10;12.90;99.90
16102;DHT22;56411;52.964;10.540;2022-11-09T00:33:39;12.90;99.90
16102;DHT22;56411;52.964;10.540;2022-11-09T00:36:09;12.90;99.90
16102;DHT22;56411;52.964;10.540;2022-11-09T00:38:37;12.90;99.90
16102;DHT22;56411;52.964;10.540;2022-11-09T00:41:08;12.80;99.90
16102;DHT22;56411;52.964;10.540;2022-11-09T00:43:36;12.70;99.90
16102;DHT22;56411;52.964;10.540;2022-11-09T00:46:03;12.70;99.90
16102;DHT22;56411;52.964;10.540;2022-11-09T00:48:30;12.60;99.90
16102;DHT22;56411;52.964;10.540;2022-11-09T00:50:59;12.60;99.90
16102;DHT22;56411;52.964;10.540;2022-11-09T00:53:26;12.60;99.90
16102;DHT22;56411;52.964;10.540;2022-11-09T00:55:55;12.60;99.90
16102;DHT22;56411;52.964;10.540;2022-11-09T00:58:22;12.60;99.90
16102;DHT22;56411;52.964;10.540;2022-11-09T01:00:50;12.70;99.90
16102;DHT22;56411;52.964;10.540;2022-11-09T01:03:17;12.60;99.90
16102;DHT22;56411;52.964;10.540;2022-11-09T01:05:44;12.60;99.90
16102;DHT22;56411;52.964;10.540;2022-11-09T01:08:12;12.50;99.90
16102;DHT22;56411;52.964;10.540;2022-11-09T01:10:40;12.50;99.90
16102;DHT22;56411;52.964;10.540;2022-11-09T01:13:08;12.40;99.90
16102;DHT22;56411;52.964;10.540;2022-11-09T01:15:40;12.40;99.90
16102;DHT22;56411;52.964;10.540;2022-11-09T01:18:07;12.30;99.90
16102;DHT22;56411;52.964;10.540;2022-11-09T01:20:38;12.30;99.90
16102;DHT22;56411;52.964;10.540;2022-11-09T01:23:05;12.30;99.90
16102;DHT22;56411;52.964;10.540;2022-11-09T01:25:34;12.30;99.90
16102;DHT22;56411;52.964;10.540;2022-11-09T01:28:02;12.20;99.90
16102;DHT22;56411;52.964;10.540;2022-11-09T01:30:33;12.20;99.90
16102;DHT22;56411;52.964;10.540;2022-11-09T01:33:02;12.20;99.90
16102;DHT22;56411;52.964;10.540;2022-11-09T01:35:29;12.20;99.90
16102;DHT22;56411;52.964;10.540;2022-11-09T01:37:56;12.20;99.90
16102;DHT22;56411;52.964;10.540;2022-11-09T01:40:23;12.20;99.90
16102;DHT22;56411;52.964;10.540;2022-11-09T01:42:51;12.20;99.90
16102;DHT22;56411;52.964;10.540;2022-11-09T01:45:25;12.30;99.90
16102;DHT22;56411;52.964;10.540;2022-11-09T01:47:57;12.30;99.90
16102;DHT22;56411;52.964;10.540;2022-11-09T01:50:31;12.20;99.90
16102;DHT22;56411;52.964;10.540;2022-11-09T01:53:01;12.20;99.90
16102;DHT22;56411;52.964;10.540;2022-11-09T01:55:28;12.10;99.90
16102;DHT22;56411;52.964;10.540;2022-11-09T01:57:59;12.10;99.90
16102;DHT22;56411;52.964;10.540;2022-11-09T02:00:28;12.00;99.90
16102;DHT22;56411;52.964;10.540;2022-11-09T02:02:59;12.00;99.90
16102;DHT22;56411;52.964;10.540;2022-11-09T02:05:30;12.00;99.90
16102;DHT22;56411;52.964;10.540;2022-11-09T02:08:00;12.00;99.90
16102;DHT22;56411;52.964;10.540;2022-11-09T02:10:31;12.00;99.90
16102;DHT22;56411;52.964;10.540;2022-11-09T02:13:01;12.00;99.90
16102;DHT22;56411;52.964;10.540;2022-11-09T02:15:29;12.00;99.90
16102;DHT22;56411;52.964;10.540;2022-11-09T02:17:56;12.10;99.90
16102;DHT22;56411;52.964;10.540;2022-11-09T02:20:26;12.10;99.90
16102;DHT22;56411;52.964;10.540;2022-11-09T02:22:54;12.10;99.90
16102;DHT22;56411;52.964;10.540;2022-11-09T02:25:21;12.20;99.90
16102;DHT22;56411;52.964;10.540;2022-11-09T02:27:48;12.30;99.90
16102;DHT22;56411;52.964;10.540;2022-11-09T02:30:18;12.30;99.90
16102;DHT22;56411;52.964;10.540;2022-11-09T02:32:46;12.30;99.90
16102;DHT22;56411;52.964;10.540;2022-11-09T02:35:13;12.30;99.90
16102;DHT22;56411;52.964;10.540;2022-11-09T02:37:46;12.40;99.90
16102;DHT22;56411;52.964;10.540;2022-11-09T02:40:18;12.50;99.90
16102;DHT22;56411;52.964;10.540;2022-11-09T02:42:46;12.50;99.90
16102;DHT22;56411;52.964;10.540;2022-11-09T02:45:13;12.60;99.90
16102;DHT22;56411;52.964;10.540;2022-11-09T02:47:40;12.60;99.90
16102;DHT22;56411;52.964;10.540;2022-11-09T02:50:08;12.60;99.90
16102;DHT22;56411;52.964;10.540;2022-11-09T02:52:35;12.60;99.90
16102;DHT22;56411;52.964;10.540;2022-11-09T02:55:05;12.60;99.90
16102;DHT22;56411;52.964;10.540;2022-11-09T02:57:32;12.70;99.90
16102;DHT22;56411;52.964;10.540;2022-11-09T02:59:59;12.70;99.90
16102;DHT22;56411;52.964;10.540;2022-11-09T03:02:28;12.90;99.90
16102;DHT22;56411;52.964;10.540;2022-11-09T03:04:55;12.90;99.90
16102;DHT22;56411;52.964;10.540;2022-11-09T03:07:23;13.00;99.90
16102;DHT22;56411;52.964;10.540;2022-11-09T03:09:49;13.00;99.90
16102;DHT22;56411;52.964;10.540;2022-11-09T03:12:19;13.00;99.90
16102;DHT22;56411;52.964;10.540;2022-11-09T03:14:55;13.00;99.90
16102;DHT22;56411;52.964;10.540;2022-11-09T03:17:23;13.00;99.90
16102;DHT22;56411;52.964;10.540;2022-11-09T03:19:50;13.10;99.90
16102;DHT22;56411;52.964;10.540;2022-11-09T03:22:17;13.10;99.90
16102;DHT22;56411;52.964;10.540;2022-11-09T03:24:45;13.20;99.90
16102;DHT22;56411;52.964;10.540;2022-11-09T03:27:12;13.20;99.90
16102;DHT22;56411;52.964;10.540;2022-11-09T03:29:40;13.30;99.90
16102;DHT22;56411;52.964;10.540;2022-11-09T03:32:09;13.40;99.90
16102;DHT22;56411;52.964;10.540;2022-11-09T03:34:36;13.50;99.90
16102;DHT22;56411;52.964;10.540;2022-11-09T03:37:06;13.60;99.90
16102;DHT22;56411;52.964;10.540;2022-11-09T03:39:33;13.60;99.90
16102;DHT22;56411;52.964;10.540;2022-11-09T03:42:00;13.60;99.90
16102;DHT22;56411;52.964;10.540;2022-11-09T03:44:27;13.60;99.90
16102;DHT22;56411;52.964;10.540;2022-11-09T03:46:56;13.60;99.90
16102;DHT22;56411;52.964;10.540;2022-11-09T03:49:23;13.60;99.90
16102;DHT22;56411;52.964;10.540;2022-11-09T03:51:50;13.60;99.90
16102;DHT22;56411;52.964;10.540;2022-11-09T03:54:17;13.50;99.90
16102;DHT22;56411;52.964;10.540;2022-11-09T03:56:44;13.50;99.90
16102;DHT22;56411;52.964;10.540;2022-11-09T03:59:11;13.50;99.90
16102;DHT22;56411;52.964;10.540;2022-11-09T04:01:39;13.40;99.90
16102;DHT22;56411;52.964;10.540;2022-11-09T04:04:07;13.40;99.90
16102;DHT22;56411;52.964;10.540;2022-11-09T04:06:34;13.30;99.90
16102;DHT22;56411;52.964;10.540;2022-11-09T04:09:01;13.30;99.90
16102;DHT22;56411;52.964;10.540;2022-11-09T04:11:28;13.20;99.90
16102;DHT22;56411;52.964;10.540;2022-11-09T04:13:55;13.10;99.90
16102;DHT22;56411;52.964;10.540;2022-11-09T04:16:22;13.10;99.90
16102;DHT22;56411;52.964;10.540;2022-11-09T04:18:49;13.00;99.90
16102;DHT22;56411;52.964;10.540;2022-11-09T04:21:17;12.90;99.90
16102;DHT22;56411;52.964;10.540;2022-11-09T04:23:46;12.90;99.90
16102;DHT22;56411;52.964;10.540;2022-11-09T04:26:14;12.80;99.90
16102;DHT22;56411;52.964;10.540;2022-11-09T04:28:41;12.80;99.90
16102;DHT22;56411;52.964;10.540;2022-11-09T04:31:11;12.70;99.90
16102;DHT22;56411;52.964;10.540;2022-11-09T04:33:38;12.70;99.90
16102;DHT22;56411;52.964;10.540;2022-11-09T04:36:05;12.70;99.90
16102;DHT22;56411;52.964;10.540;2022-11-09T04:38:34;12.70;99.90
16102;DHT22;56411;52.964;10.540;2022-11-09T04:41:02;12.70;99.90
16102;DHT22;56411;52.964;10.540;2022-11-09T04:43:29;12.70;99.90
16102;DHT22;56411;52.964;10.540;2022-11-09T04:45:59;12.80;99.90
16102;DHT22;56411;52.964;10.540;2022-11-09T04:48:26;12.70;99.90
16102;DHT22;56411;52.964;10.540;2022-11-09T04:50:58;12.70;99.90
16102;DHT22;56411;52.964;10.540;2022-11-09T04:53:26;12.70;99.90
16102;DHT22;56411;52.964;10.540;2022-11-09T04:55:54;12.70;99.90
16102;DHT22;56411;52.964;10.540;2022-11-09T04:58:21;12.70;99.90
16102;DHT22;56411;52.964;10.540;2022-11-09T05:00:48;12.70;99.90
16102;DHT22;56411;52.964;10.540;2022-11-09T05:03:16;12.60;99.90
16102;DHT22;56411;52.964;10.540;2022-11-09T05:05:43;12.60;99.90
16102;DHT22;56411;52.964;10.540;2022-11-09T05:08:10;12.60;99.90
16102;DHT22;56411;52.964;10.540;2022-11-09T05:10:37;12.50;99.90
16102;DHT22;56411;52.964;10.540;2022-11-09T05:13:07;12.50;99.90
16102;DHT22;56411;52.964;10.540;2022-11-09T05:15:35;12.50;99.90
16102;DHT22;56411;52.964;10.540;2022-11-09T05:18:03;12.50;99.90
16102;DHT22;56411;52.964;10.540;2022-11-09T05:20:31;12.50;99.90
16102;DHT22;56411;52.964;10.540;2022-11-09T05:23:01;12.50;99.90
16102;DHT22;56411;52.964;10.540;2022-11-09T05:25:46;12.40;99.90
16102;DHT22;56411;52.964;10.540;2022-11-09T05:28:15;12.40;99.90
16102;DHT22;56411;52.964;10.540;2022-11-09T05:30:42;12.40;99.90
16102;DHT22;56411;52.964;10.540;2022-11-09T05:33:09;12.30;99.90
16102;DHT22;56411;52.964;10.540;2022-11-09T05:35:36;12.30;99.90
16102;DHT22;56411;52.964;10.540;2022-11-09T05:38:03;12.20;99.90
16102;DHT22;56411;52.964;10.540;2022-11-09T05:40:30;12.20;99.90
16102;DHT22;56411;52.964;10.540;2022-11-09T05:42:58;12.20;99.90
16102;DHT22;56411;52.964;10.540;2022-11-09T05:45:26;12.20;99.90
16102;DHT22;56411;52.964;10.540;2022-11-09T05:47:53;12.20;99.90
16102;DHT22;56411;52.964;10.540;2022-11-09T05:50:20;12.30;99.90
16102;DHT22;56411;52.964;10.540;2022-11-09T05:52:47;12.30;99.90
16102;DHT22;56411;52.964;10.540;2022-11-09T05:55:14;12.20;99.90
16102;DHT22;56411;52.964;10.540;2022-11-09T05:57:42;12.20;99.90
16102;DHT22;56411;52.964;10.540;2022-11-09T06:00:10;12.20;99.90
16102;DHT22;56411;52.964;10.540;2022-11-09T06:02:39;12.20;99.90
16102;DHT22;56411;52.964;10.540;2022-11-09T06:05:06;12.10;99.90
16102;DHT22;56411;52.964;10.540;2022-11-09T06:07:33;12.10;99.90
16102;DHT22;56411;52.964;10.540;2022-11-09T06:10:00;12.20;99.90
16102;DHT22;56411;52.964;10.540;2022-11-09T06:12:27;12.30;99.90
16102;DHT22;56411;52.964;10.540;2022-11-09T06:14:54;12.20;99.90
16102;DHT22;56411;52.964;10.540;2022-11-09T06:17:21;12.20;99.90
16102;DHT22;56411;52.964;10.540;2022-11-09T06:19:50;12.20;99.90
16102;DHT22;56411;52.964;10.540;2022-11-09T06:22:17;12.20;99.90
16102;DHT22;56411;52.964;10.540;2022-11-09T06:24:44;12.20;99.90
16102;DHT22;56411;52.964;10.540;2022-11-09T06:27:11;12.10;99.90
16102;DHT22;56411;52.964;10.540;2022-11-09T06:29:39;12.10;99.90
16102;DHT22;56411;52.964;10.540;2022-11-09T06:32:06;12.20;99.90
16102;DHT22;56411;52.964;10.540;2022-11-09T06:34:33;12.20;99.90
16102;DHT22;56411;52.964;10.540;2022-11-09T06:37:02;12.20;99.90
16102;DHT22;56411;52.964;10.540;2022-11-09T06:39:29;12.10;99.90
16102;DHT22;56411;52.964;10.540;2022-11-09T06:41:56;12.10;99.90
16102;DHT22;56411;52.964;10.540;2022-11-09T06:44:24;12.10;99.90
16102;DHT22;56411;52.964;10.540;2022-11-09T06:46:51;12.10;99.90
16102;DHT22;56411;52.964;10.540;2022-11-09T06:49:18;12.10;99.90
16102;DHT22;56411;52.964;10.540;2022-11-09T06:51:45;12.30;99.90
16102;DHT22;56411;52.964;10.540;2022-11-09T06:54:13;12.40;99.90
16102;DHT22;56411;52.964;10.540;2022-11-09T06:56:40;12.50;99.90
16102;DHT22;56411;52.964;10.540;2022-11-09T06:59:07;12.50;99.90
16102;DHT22;56411;52.964;10.540;2022-11-09T07:01:34;12.60;99.90
16102;DHT22;56411;52.964;10.540;2022-11-09T07:04:02;12.60;99.90
16102;DHT22;56411;52.964;10.540;2022-11-09T07:06:29;12.60;99.90
16102;DHT22;56411;52.964;10.540;2022-11-09T07:08:56;12.60;99.90
16102;DHT22;56411;52.964;10.540;2022-11-09T07:11:24;12.60;99.90
16102;DHT22;56411;52.964;10.540;2022-11-09T07:13:51;12.70;99.90
16102;DHT22;56411;52.964;10.540;2022-11-09T07:16:18;12.70;99.90
16102;DHT22;56411;52.964;10.540;2022-11-09T07:18:45;12.70;99.90
16102;DHT22;56411;52.964;10.540;2022-11-09T07:21:12;12.70;99.90
16102;DHT22;56411;52.964;10.540;2022-11-09T07:23:39;12.70;99.90
16102;DHT22;56411;52.964;10.540;2022-11-09T07:26:06;12.80;99.90
16102;DHT22;56411;52.964;10.540;2022-11-09T07:28:35;12.90;99.90
16102;DHT22;56411;52.964;10.540;2022-11-09T07:31:02;12.90;99.90
16102;DHT22;56411;52.964;10.540;2022-11-09T07:33:29;12.90;99.90
16102;DHT22;56411;52.964;10.540;2022-11-09T07:35:58;13.00;99.90
16102;DHT22;56411;52.964;10.540;2022-11-09T07:38:26;13.00;99.90
16102;DHT22;56411;52.964;10.540;2022-11-09T07:40:57;13.00;99.90
16102;DHT22;56411;52.964;10.540;2022-11-09T07:43:23;13.00;99.90
16102;DHT22;56411;52.964;10.540;2022-11-09T07:45:52;13.10;99.90
16102;DHT22;56411;52.964;10.540;2022-11-09T07:48:19;13.10;99.90
16102;DHT22;56411;52.964;10.540;2022-11-09T07:50:46;13.10;99.90
16102;DHT22;56411;52.964;10.540;2022-11-09T07:53:14;13.10;99.90
16102;DHT22;56411;52.964;10.540;2022-11-09T07:55:42;13.10;99.90
16102;DHT22;56411;52.964;10.540;2022-11-09T07:58:11;13.20;99.90
16102;DHT22;56411;52.964;10.540;2022-11-09T08:00:40;13.20;99.90
16102;DHT22;56411;52.964;10.540;2022-11-09T08:03:08;13.20;99.90
16102;DHT22;56411;52.964;10.540;2022-11-09T08:05:36;13.20;99.90
16102;DHT22;56411;52.964;10.540;2022-11-09T08:08:05;13.30;99.90
16102;DHT22;56411;52.964;10.540;2022-11-09T08:10:33;13.30;99.90
16102;DHT22;56411;52.964;10.540;2022-11-09T08:13:02;13.40;99.90
16102;DHT22;56411;52.964;10.540;2022-11-09T08:15:30;13.50;99.90
16102;DHT22;56411;52.964;10.540;2022-11-09T08:17:58;13.50;99.90
16102;DHT22;56411;52.964;10.540;2022-11-09T08:20:27;13.50;99.90
16102;DHT22;56411;52.964;10.540;2022-11-09T08:22:55;13.50;99.90
16102;DHT22;56411;52.964;10.540;2022-11-09T08:25:22;13.60;99.90
16102;DHT22;56411;52.964;10.540;2022-11-09T08:27:49;13.60;99.90
16102;DHT22;56411;52.964;10.540;2022-11-09T08:30:18;13.60;99.90
16102;DHT22;56411;52.964;10.540;2022-11-09T08:32:45;13.60;99.90
16102;DHT22;56411;52.964;10.540;2022-11-09T08:35:16;13.60;99.90
16102;DHT22;56411;52.964;10.540;2022-11-09T08:37:47;13.60;99.90
16102;DHT22;56411;52.964;10.540;2022-11-09T08:40:16;13.70;99.90
16102;DHT22;56411;52.964;10.540;2022-11-09T08:42:44;13.70;99.90
16102;DHT22;56411;52.964;10.540;2022-11-09T08:45:12;13.70;99.90
16102;DHT22;56411;52.964;10.540;2022-11-09T08:47:39;13.70;99.90
16102;DHT22;56411;52.964;10.540;2022-11-09T08:50:07;13.60;99.90
16102;DHT22;56411;52.964;10.540;2022-11-09T08:52:34;13.60;99.90
16102;DHT22;56411;52.964;10.540;2022-11-09T08:55:04;13.60;99.90
16102;DHT22;56411;52.964;10.540;2022-11-09T08:57:31;13.60;99.90
16102;DHT22;56411;52.964;10.540;2022-11-09T08:59:58;13.70;99.90
16102;DHT22;56411;52.964;10.540;2022-11-09T09:02:25;13.70;99.90
16102;DHT22;56411;52.964;10.540;2022-11-09T09:04:52;13.80;99.90
16102;DHT22;56411;52.964;10.540;2022-11-09T09:07:19;13.90;99.90
16102;DHT22;56411;52.964;10.540;2022-11-09T09:09:46;13.90;99.90
16102;DHT22;56411;52.964;10.540;2022-11-09T09:12:15;14.00;99.90
16102;DHT22;56411;52.964;10.540;2022-11-09T09:14:42;14.10;99.90
16102;DHT22;56411;52.964;10.540;2022-11-09T09:17:08;14.20;99.90
16102;DHT22;56411;52.964;10.540;2022-11-09T09:19:35;14.30;99.90
16102;DHT22;56411;52.964;10.540;2022-11-09T09:22:02;14.30;99.90
16102;DHT22;56411;52.964;10.540;2022-11-09T09:24:29;14.30;99.90
16102;DHT22;56411;52.964;10.540;2022-11-09T09:26:56;14.40;99.90
16102;DHT22;56411;52.964;10.540;2022-11-09T09:29:25;14.50;99.90
16102;DHT22;56411;52.964;10.540;2022-11-09T09:31:52;14.60;99.90
16102;DHT22;56411;52.964;10.540;2022-11-09T09:34:31;14.80;99.90
16102;DHT22;56411;52.964;10.540;2022-11-09T09:37:03;14.80;99.90
16102;DHT22;56411;52.964;10.540;2022-11-09T09:39:31;14.90;99.90
16102;DHT22;56411;52.964;10.540;2022-11-09T09:42:00;14.80;99.90
16102;DHT22;56411;52.964;10.540;2022-11-09T09:44:37;14.70;99.90
16102;DHT22;56411;52.964;10.540;2022-11-09T09:47:10;14.60;99.90
16102;DHT22;56411;52.964;10.540;2022-11-09T09:49:41;14.50;99.90
16102;DHT22;56411;52.964;10.540;2022-11-09T09:52:15;14.50;99.90
16102;DHT22;56411;52.964;10.540;2022-11-09T09:54:49;14.50;99.90
16102;DHT22;56411;52.964;10.540;2022-11-09T09:57:20;14.50;99.90
16102;DHT22;56411;52.964;10.540;2022-11-09T09:59:51;14.70;99.90
16102;DHT22;56411;52.964;10.540;2022-11-09T10:02:22;14.80;99.90
16102;DHT22;56411;52.964;10.540;2022-11-09T10:04:51;14.80;99.90
16102;DHT22;56411;52.964;10.540;2022-11-09T10:07:24;14.90;99.90
16102;DHT22;56411;52.964;10.540;2022-11-09T10:10:02;14.80;99.90
16102;DHT22;56411;52.964;10.540;2022-11-09T10:12:40;14.90;99.90
16102;DHT22;56411;52.964;10.540;2022-11-09T10:15:21;14.80;99.90
16102;DHT22;56411;52.964;10.540;2022-11-09T10:18:08;14.70;99.90
16102;DHT22;56411;52.964;10.540;2022-11-09T10:20:49;14.70;99.90
16102;DHT22;56411;52.964;10.540;2022-11-09T10:23:33;14.60;99.90
16102;DHT22;56411;52.964;10.540;2022-11-09T10:26:03;14.60;99.90
16102;DHT22;56411;52.964;10.540;2022-11-09T10:28:30;14.80;99.90
16102;DHT22;56411;52.964;10.540;2022-11-09T10:31:00;14.80;99.90
16102;DHT22;56411;52.964;10.540;2022-11-09T10:33:28;14.90;99.90
16102;DHT22;56411;52.964;10.540;2022-11-09T10:36:00;15.00;99.90
16102;DHT22;56411;52.964;10.540;2022-11-09T10:38:31;14.90;99.90
16102;DHT22;56411;52.964;10.540;2022-11-09T10:41:05;14.90;99.90
16102;DHT22;56411;52.964;10.540;2022-11-09T10:43:32;14.80;99.90
16102;DHT22;56411;52.964;10.540;2022-11-09T10:46:02;14.80;99.90
16102;DHT22;56411;52.964;10.540;2022-11-09T10:48:32;14.90;99.90
16102;DHT22;56411;52.964;10.540;2022-11-09T10:51:00;15.40;99.90
16102;DHT22;56411;52.964;10.540;2022-11-09T10:53:28;16.00;99.90
16102;DHT22;56411;52.964;10.540;2022-11-09T10:55:57;16.10;99.90
16102;DHT22;56411;52.964;10.540;2022-11-09T10:58:30;15.90;99.90
16102;DHT22;56411;52.964;10.540;2022-11-09T11:01:04;15.70;99.90
16102;DHT22;56411;52.964;10.540;2022-11-09T11:03:34;15.60;99.90
16102;DHT22;56411;52.964;10.540;2022-11-09T11:06:04;15.70;99.90
16102;DHT22;56411;52.964;10.540;2022-11-09T11:08:35;15.70;99.90
16102;DHT22;56411;52.964;10.540;2022-11-09T11:11:22;15.50;99.90
16102;DHT22;56411;52.964;10.540;2022-11-09T11:13:50;15.40;99.90
16102;DHT22;56411;52.964;10.540;2022-11-09T11:16:27;15.30;99.90
16102;DHT22;56411;52.964;10.540;2022-11-09T11:18:54;15.20;99.90
16102;DHT22;56411;52.964;10.540;2022-11-09T11:21:23;15.20;99.90
16102;DHT22;56411;52.964;10.540;2022-11-09T11:24:18;15.30;99.90
16102;DHT22;56411;52.964;10.540;2022-11-09T11:26:51;15.40;99.90
16102;DHT22;56411;52.964;10.540;2022-11-09T11:29:32;15.30;99.90
16102;DHT22;56411;52.964;10.540;2022-11-09T11:32:02;15.30;99.90
16102;DHT22;56411;52.964;10.540;2022-11-09T11:34:36;15.60;99.90
16102;DHT22;56411;52.964;10.540;2022-11-09T11:37:14;16.00;99.90
16102;DHT22;56411;52.964;10.540;2022-11-09T11:39:58;16.10;99.90
16102;DHT22;56411;52.964;10.540;2022-11-09T11:43:02;15.90;99.90
16102;DHT22;56411;52.964;10.540;2022-11-09T11:45:34;15.50;99.90
16102;DHT22;56411;52.964;10.540;2022-11-09T11:48:30;15.40;99.90
16102;DHT22;56411;52.964;10.540;2022-11-09T11:51:05;15.30;99.90
16102;DHT22;56411;52.964;10.540;2022-11-09T11:53:59;15.20;99.90
16102;DHT22;56411;52.964;10.540;2022-11-09T11:56:31;15.20;99.90
16102;DHT22;56411;52.964;10.540;2022-11-09T11:59:23;15.20;99.90
16102;DHT22;56411;52.964;10.540;2022-11-09T12:02:14;15.20;99.90
16102;DHT22;56411;52.964;10.540;2022-11-09T12:05:01;15.30;99.90
16102;DHT22;56411;52.964;10.540;2022-11-09T12:07:33;15.50;99.90
16102;DHT22;56411;52.964;10.540;2022-11-09T12:10:16;15.70;99.90
16102;DHT22;56411;52.964;10.540;2022-11-09T12:12:56;15.80;99.90
16102;DHT22;56411;52.964;10.540;2022-11-09T12:15:33;16.30;99.90
16102;DHT22;56411;52.964;10.540;2022-11-09T12:18:14;16.90;99.90
16102;DHT22;56411;52.964;10.540;2022-11-09T12:20:54;17.30;99.90
16102;DHT22;56411;52.964;10.540;2022-11-09T12:23:41;17.00;99.90
16102;DHT22;56411;52.964;10.540;2022-11-09T12:26:18;16.30;99.90
16102;DHT22;56411;52.964;10.540;2022-11-09T12:29:02;16.00;99.90
16102;DHT22;56411;52.964;10.540;2022-11-09T12:31:41;15.60;99.90
16102;DHT22;56411;52.964;10.540;2022-11-09T12:34:15;15.40;99.90
16102;DHT22;56411;52.964;10.540;2022-11-09T12:36:51;15.30;99.90
16102;DHT22;56411;52.964;10.540;2022-11-09T12:39:24;15.20;99.90
16102;DHT22;56411;52.964;10.540;2022-11-09T12:41:58;15.10;99.90
16102;DHT22;56411;52.964;10.540;2022-11-09T12:44:28;15.10;99.90
16102;DHT22;56411;52.964;10.540;2022-11-09T12:47:01;15.10;99.90
16102;DHT22;56411;52.964;10.540;2022-11-09T12:49:37;15.00;99.90
16102;DHT22;56411;52.964;10.540;2022-11-09T12:52:09;15.00;99.90
16102;DHT22;56411;52.964;10.540;2022-11-09T12:54:40;15.00;99.90
16102;DHT22;56411;52.964;10.540;2022-11-09T12:57:12;15.00;99.90
16102;DHT22;56411;52.964;10.540;2022-11-09T12:59:45;15.00;99.90
16102;DHT22;56411;52.964;10.540;2022-11-09T13:02:32;15.00;99.90
16102;DHT22;56411;52.964;10.540;2022-11-09T13:05:02;14.90;99.90
16102;DHT22;56411;52.964;10.540;2022-11-09T13:07:44;14.90;99.90
16102;DHT22;56411;52.964;10.540;2022-11-09T13:10:30;14.70;99.90
16102;DHT22;56411;52.964;10.540;2022-11-09T13:13:04;14.80;99.90
16102;DHT22;56411;52.964;10.540;2022-11-09T13:16:04;15.00;99.90
16102;DHT22;56411;52.964;10.540;2022-11-09T13:18:49;15.40;99.90
16102;DHT22;56411;52.964;10.540;2022-11-09T13:21:38;15.80;99.90
16102;DHT22;56411;52.964;10.540;2022-11-09T13:27:36;16.20;99.90
16102;DHT22;56411;52.964;10.540;2022-11-09T13:33:21;16.80;99.90
16102;DHT22;56411;52.964;10.540;2022-11-09T13:35:57;17.30;99.90
16102;DHT22;56411;52.964;10.540;2022-11-09T13:38:27;17.30;99.90
16102;DHT22;56411;52.964;10.540;2022-11-09T13:40:55;17.20;99.90
16102;DHT22;56411;52.964;10.540;2022-11-09T13:43:27;17.20;99.90
16102;DHT22;56411;52.964;10.540;2022-11-09T13:45:55;17.10;99.90
16102;DHT22;56411;52.964;10.540;2022-11-09T13:51:19;17.30;99.90
16102;DHT22;56411;52.964;10.540;2022-11-09T13:53:57;17.30;99.90
16102;DHT22;56411;52.964;10.540;2022-11-09T13:56:31;17.40;99.90
16102;DHT22;56411;52.964;10.540;2022-11-09T13:59:08;17.50;99.90
16102;DHT22;56411;52.964;10.540;2022-11-09T14:01:45;17.60;99.90
16102;DHT22;56411;52.964;10.540;2022-11-09T14:04:24;17.20;99.90
16102;DHT22;56411;52.964;10.540;2022-11-09T14:07:00;16.70;99.90
16102;DHT22;56411;52.964;10.540;2022-11-09T14:09:35;16.30;99.90
16102;DHT22;56411;52.964;10.540;2022-11-09T14:12:20;16.10;99.90
16102;DHT22;56411;52.964;10.540;2022-11-09T14:15:04;16.00;99.90
16102;DHT22;56411;52.964;10.540;2022-11-09T14:17:38;15.70;99.90
16102;DHT22;56411;52.964;10.540;2022-11-09T14:20:20;15.50;99.90
16102;DHT22;56411;52.964;10.540;2022-11-09T14:22:50;15.30;99.90
16102;DHT22;56411;52.964;10.540;2022-11-09T14:25:19;15.10;99.90
16102;DHT22;56411;52.964;10.540;2022-11-09T14:27:48;15.00;99.90
16102;DHT22;56411;52.964;10.540;2022-11-09T14:30:25;14.90;99.90
16102;DHT22;56411;52.964;10.540;2022-11-09T14:32:54;14.70;99.90
16102;DHT22;56411;52.964;10.540;2022-11-09T14:35:24;14.70;99.90
16102;DHT22;56411;52.964;10.540;2022-11-09T14:37:52;14.70;99.90
16102;DHT22;56411;52.964;10.540;2022-11-09T14:40:23;14.60;99.90
16102;DHT22;56411;52.964;10.540;2022-11-09T14:42:54;14.50;99.90
16102;DHT22;56411;52.964;10.540;2022-11-09T14:45:23;14.40;99.90
16102;DHT22;56411;52.964;10.540;2022-11-09T14:47:54;14.30;99.90
16102;DHT22;56411;52.964;10.540;2022-11-09T14:50:24;14.20;99.90
16102;DHT22;56411;52.964;10.540;2022-11-09T14:52:52;14.20;99.90
16102;DHT22;56411;52.964;10.540;2022-11-09T14:55:22;14.10;99.90
16102;DHT22;56411;52.964;10.540;2022-11-09T14:57:52;13.90;99.90
16102;DHT22;56411;52.964;10.540;2022-11-09T15:00:25;13.90;99.90
16102;DHT22;56411;52.964;10.540;2022-11-09T15:02:54;13.90;99.90
16102;DHT22;56411;52.964;10.540;2022-11-09T15:05:35;13.80;99.90
16102;DHT22;56411;52.964;10.540;2022-11-09T15:08:06;13.70;99.90
16102;DHT22;56411;52.964;10.540;2022-11-09T15:10:40;13.60;99.90
16102;DHT22;56411;52.964;10.540;2022-11-09T15:13:13;13.50;99.90
16102;DHT22;56411;52.964;10.540;2022-11-09T15:15:50;13.40;99.90
16102;DHT22;56411;52.964;10.540;2022-11-09T15:18:19;13.40;99.90
16102;DHT22;56411;52.964;10.540;2022-11-09T15:20:46;13.30;99.90
16102;DHT22;56411;52.964;10.540;2022-11-09T15:23:22;13.10;99.90
16102;DHT22;56411;52.964;10.540;2022-11-09T15:25:54;13.00;99.90
16102;DHT22;56411;52.964;10.540;2022-11-09T15:28:24;12.90;99.90
16102;DHT22;56411;52.964;10.540;2022-11-09T15:31:11;12.80;99.90
16102;DHT22;56411;52.964;10.540;2022-11-09T15:33:45;12.70;99.90
16102;DHT22;56411;52.964;10.540;2022-11-09T15:36:23;12.70;99.90
16102;DHT22;56411;52.964;10.540;2022-11-09T15:39:03;12.50;99.90
16102;DHT22;56411;52.964;10.540;2022-11-09T15:41:30;12.30;99.90
16102;DHT22;56411;52.964;10.540;2022-11-09T15:43:57;12.30;99.90
16102;DHT22;56411;52.964;10.540;2022-11-09T15:46:30;12.20;99.90